sensor_id;sensor_type;location;lat;lon;timestamp;pressure;altitude;pressure_sealevel;temperature;humidity
46614;BME280;32338;50.430;6.806;2023-07-28T00:02:11;66963.25;;;14.16;100.00
46614;BME280;32338;50.430;6.806;2023-07-28T00:04:38;66955.31;;;14.09;100.00
46614;BME280;32338;50.430;6.806;2023-07-28T00:07:05;66955.31;;;14.09;100.00
46614;BME280;32338;50.430;6.806;2023-07-28T00:09:32;66957.00;;;14.10;100.00
46614;BME280;32338;50.430;6.806;2023-07-28T00:11:59;66961.34;;;14.12;100.00
46614;BME280;32338;50.430;6.806;2023-07-28T00:14:26;66955.31;;;14.09;100.00
46614;BME280;32338;50.430;6.806;2023-07-28T00:16:56;66963.25;;;14.16;100.00
46614;BME280;32338;50.430;6.806;2023-07-28T00:19:23;66968.69;;;14.19;100.00
46614;BME280;32338;50.430;6.806;2023-07-28T00:21:50;66967.56;;;14.18;100.00
46614;BME280;32338;50.430;6.806;2023-07-28T00:24:17;66960.41;;;14.14;100.00
46614;BME280;32338;50.430;6.806;2023-07-28T00:26:44;66956.47;;;14.10;100.00
46614;BME280;32338;50.430;6.806;2023-07-28T00:29:11;66964.94;;;14.18;100.00
46614;BME280;32338;50.430;6.806;2023-07-28T00:31:37;66966.06;;;14.19;100.00
46614;BME280;32338;50.430;6.806;2023-07-28T00:34:05;66962.66;;;14.16;100.00
46614;BME280;32338;50.430;6.806;2023-07-28T00:36:32;66962.09;;;14.15;100.00
46614;BME280;32338;50.430;6.806;2023-07-28T00:38:58;66970.03;;;14.22;100.00
46614;BME280;32338;50.430;6.806;2023-07-28T00:41:25;66962.09;;;14.15;100.00
46614;BME280;32338;50.430;6.806;2023-07-28T00:43:51;66964.75;;;14.15;100.00
46614;BME280;32338;50.430;6.806;2023-07-28T00:46:18;66966.25;;;14.14;100.00
46614;BME280;32338;50.430;6.806;2023-07-28T00:48:45;66962.66;;;14.16;100.00
46614;BME280;32338;50.430;6.806;2023-07-28T00:51:13;66964.94;;;14.18;100.00
46614;BME280;32338;50.430;6.806;2023-07-28T00:53:40;66964.38;;;14.17;100.00
46614;BME280;32338;50.430;6.806;2023-07-28T00:56:07;66969.84;;;14.20;100.00
46614;BME280;32338;50.430;6.806;2023-07-28T00:58:34;66958.91;;;14.15;100.00
46614;BME280;32338;50.430;6.806;2023-07-28T01:01:00;66958.16;;;14.11;100.00
46614;BME280;32338;50.430;6.806;2023-07-28T01:03:27;66967.00;;;14.17;100.00
46614;BME280;32338;50.430;6.806;2023-07-28T01:05:58;66956.47;;;14.10;100.00
46614;BME280;32338;50.430;6.806;2023-07-28T01:08:34;66961.34;;;14.12;100.00
46614;BME280;32338;50.430;6.806;2023-07-28T01:11:04;66959.84;;;14.13;100.00
46614;BME280;32338;50.430;6.806;2023-07-28T01:13:30;66959.66;;;14.10;100.00
46614;BME280;32338;50.430;6.806;2023-07-28T01:15:57;66965.13;;;14.13;100.00
46614;BME280;32338;50.430;6.806;2023-07-28T01:18:26;66960.59;;;14.16;100.00
46614;BME280;32338;50.430;6.806;2023-07-28T01:20:55;66969.44;;;14.22;100.00
46614;BME280;32338;50.430;6.806;2023-07-28T01:23:34;66972.09;;;14.22;100.00
46614;BME280;32338;50.430;6.806;2023-07-28T01:26:06;66964.56;;;14.20;100.00
46614;BME280;32338;50.430;6.806;2023-07-28T01:28:35;66968.13;;;14.18;100.00
46614;BME280;32338;50.430;6.806;2023-07-28T01:31:04;66968.88;;;14.21;100.00
46614;BME280;32338;50.430;6.806;2023-07-28T01:33:30;66964.94;;;14.18;100.00
46614;BME280;32338;50.430;6.806;2023-07-28T01:35:57;66972.66;;;14.22;100.00
46614;BME280;32338;50.430;6.806;2023-07-28T01:38:25;66961.72;;;14.17;100.00
46614;BME280;32338;50.430;6.806;2023-07-28T01:40:52;66972.84;;;14.25;100.00
46614;BME280;32338;50.430;6.806;2023-07-28T01:43:18;66974.53;;;14.26;100.00
46614;BME280;32338;50.430;6.806;2023-07-28T01:45:46;66967.00;;;14.24;100.00
46614;BME280;32338;50.430;6.806;2023-07-28T01:48:13;66969.25;;;14.19;100.00
46614;BME280;32338;50.430;6.806;2023-07-28T01:50:39;66968.13;;;14.18;100.00
46614;BME280;32338;50.430;6.806;2023-07-28T01:53:06;66957.38;;;14.16;100.00
46614;BME280;32338;50.430;6.806;2023-07-28T01:55:33;66966.25;;;14.14;100.00
46614;BME280;32338;50.430;6.806;2023-07-28T01:58:00;66965.50;;;14.18;100.00
46614;BME280;32338;50.430;6.806;2023-07-28T02:00:27;66970.03;;;14.22;100.00
46614;BME280;32338;50.430;6.806;2023-07-28T02:02:55;66965.66;;;14.21;100.00
46614;BME280;32338;50.430;6.806;2023-07-28T02:05:23;66970.75;;;14.25;100.00
46614;BME280;32338;50.430;6.806;2023-07-28T02:07:50;66970.38;;;14.20;100.00
46614;BME280;32338;50.430;6.806;2023-07-28T02:10:16;66966.06;;;14.19;100.00
46614;BME280;32338;50.430;6.806;2023-07-28T02:12:43;66979.06;;;14.31;100.00
46614;BME280;32338;50.430;6.806;2023-07-28T02:15:10;66967.00;;;14.24;100.00
46614;BME280;32338;50.430;6.806;2023-07-28T02:17:36;66968.13;;;14.25;100.00
46614;BME280;32338;50.430;6.806;2023-07-28T02:20:05;66974.72;;;14.22;100.00
46614;BME280;32338;50.430;6.806;2023-07-28T02:22:35;66959.66;;;14.18;100.00
46614;BME280;32338;50.430;6.806;2023-07-28T02:25:02;66967.56;;;14.18;100.00
46614;BME280;32338;50.430;6.806;2023-07-28T02:27:29;66967.56;;;14.18;100.00
46614;BME280;32338;50.430;6.806;2023-07-28T02:29:56;66961.72;;;14.17;100.00
46614;BME280;32338;50.430;6.806;2023-07-28T02:32:22;66968.13;;;14.18;100.00
46614;BME280;32338;50.430;6.806;2023-07-28T02:34:49;66972.47;;;14.27;100.00
46614;BME280;32338;50.430;6.806;2023-07-28T02:37:17;66969.25;;;14.19;100.00
46614;BME280;32338;50.430;6.806;2023-07-28T02:39:43;66960.03;;;14.16;100.00
46614;BME280;32338;50.430;6.806;2023-07-28T02:42:11;66967.00;;;14.17;100.00
46614;BME280;32338;50.430;6.806;2023-07-28T02:44:37;66962.84;;;14.18;100.00
46614;BME280;32338;50.430;6.806;2023-07-28T02:47:04;66963.25;;;14.16;100.00
46614;BME280;32338;50.430;6.806;2023-07-28T02:49:31;66964.19;;;14.15;100.00
46614;BME280;32338;50.430;6.806;2023-07-28T02:51:58;66963.78;;;14.17;100.00
46614;BME280;32338;50.430;6.806;2023-07-28T02:54:26;66964.16;;;14.22;100.00
46614;BME280;32338;50.430;6.806;2023-07-28T02:56:52;66966.63;;;14.19;100.00
46614;BME280;32338;50.430;6.806;2023-07-28T02:59:21;66966.63;;;14.19;100.00
46614;BME280;32338;50.430;6.806;2023-07-28T03:01:47;66972.66;;;14.22;100.00
46614;BME280;32338;50.430;6.806;2023-07-28T03:04:17;66982.81;;;14.32;100.00
46614;BME280;32338;50.430;6.806;2023-07-28T03:06:44;66974.91;;;14.24;100.00
46614;BME280;32338;50.430;6.806;2023-07-28T03:09:10;66975.47;;;14.25;100.00
46614;BME280;32338;50.430;6.806;2023-07-28T03:11:38;66969.63;;;14.24;100.00
46614;BME280;32338;50.430;6.806;2023-07-28T03:14:05;66972.09;;;14.29;100.00
46614;BME280;32338;50.430;6.806;2023-07-28T03:16:31;66983.00;;;14.34;100.00
46614;BME280;32338;50.430;6.806;2023-07-28T03:18:58;66981.31;;;14.33;100.00
46614;BME280;32338;50.430;6.806;2023-07-28T03:21:24;66983.78;;;14.30;100.00
46614;BME280;32338;50.430;6.806;2023-07-28T03:23:51;66976.22;;;14.28;100.00
46614;BME280;32338;50.430;6.806;2023-07-28T03:26:18;66974.53;;;14.26;100.00
46614;BME280;32338;50.430;6.806;2023-07-28T03:28:45;66975.84;;;14.30;100.00
46614;BME280;32338;50.430;6.806;2023-07-28T03:31:12;66983.59;;;14.35;100.00
46614;BME280;32338;50.430;6.806;2023-07-28T03:33:39;66986.22;;;14.35;100.00
46614;BME280;32338;50.430;6.806;2023-07-28T03:36:05;66979.06;;;14.31;100.00
46614;BME280;32338;50.430;6.806;2023-07-28T03:38:32;66975.28;;;14.30;100.00
46614;BME280;32338;50.430;6.806;2023-07-28T03:40:58;66980.56;;;14.30;100.00
46614;BME280;32338;50.430;6.806;2023-07-28T03:43:25;66976.41;;;14.31;100.00
46614;BME280;32338;50.430;6.806;2023-07-28T03:45:53;66983.00;;;14.34;100.00
46614;BME280;32338;50.430;6.806;2023-07-28T03:48:19;66978.69;;;14.33;100.00
46614;BME280;32338;50.430;6.806;2023-07-28T03:50:46;66972.66;;;14.30;100.00
46614;BME280;32338;50.430;6.806;2023-07-28T03:53:12;66988.84;;;14.42;100.00
46614;BME280;32338;50.430;6.806;2023-07-28T03:55:39;66982.47;;;14.34;100.00
46614;BME280;32338;50.430;6.806;2023-07-28T03:58:06;66984.50;;;14.33;100.00
46614;BME280;32338;50.430;6.806;2023-07-28T04:00:33;66981.69;;;14.31;100.00
46614;BME280;32338;50.430;6.806;2023-07-28T04:03:01;66973.22;;;14.30;100.00
46614;BME280;32338;50.430;6.806;2023-07-28T04:05:27;66977.38;;;14.29;100.00
46614;BME280;32338;50.430;6.806;2023-07-28T04:07:54;66985.28;;;14.36;100.00
46614;BME280;32338;50.430;6.806;2023-07-28T04:10:21;66985.09;;;14.34;100.00
46614;BME280;32338;50.430;6.806;2023-07-28T04:12:48;66982.47;;;14.34;100.00
46614;BME280;32338;50.430;6.806;2023-07-28T04:15:15;67000.34;;;14.48;100.00
46614;BME280;32338;50.430;6.806;2023-07-28T04:17:41;66989.63;;;14.45;100.00
46614;BME280;32338;50.430;6.806;2023-07-28T04:20:10;66989.44;;;14.42;100.00
46614;BME280;32338;50.430;6.806;2023-07-28T04:22:37;66986.59;;;14.40;100.00
46614;BME280;32338;50.430;6.806;2023-07-28T04:25:04;66991.13;;;14.44;100.00
46614;BME280;32338;50.430;6.806;2023-07-28T04:27:31;66994.13;;;14.42;100.00
46614;BME280;32338;50.430;6.806;2023-07-28T04:29:57;66993.00;;;14.41;100.00
46614;BME280;32338;50.430;6.806;2023-07-28T04:32:24;67000.16;;;14.45;100.00
46614;BME280;32338;50.430;6.806;2023-07-28T04:34:51;66997.91;;;14.50;100.00
46614;BME280;32338;50.430;6.806;2023-07-28T04:37:20;66998.28;;;14.48;100.00
46614;BME280;32338;50.430;6.806;2023-07-28T04:39:46;66995.06;;;14.48;100.00
46614;BME280;32338;50.430;6.806;2023-07-28T04:42:13;67007.88;;;14.57;100.00
46614;BME280;32338;50.430;6.806;2023-07-28T04:44:40;67006.19;;;14.55;100.00
46614;BME280;32338;50.430;6.806;2023-07-28T04:47:06;66997.53;;;14.52;100.00
46614;BME280;32338;50.430;6.806;2023-07-28T04:49:33;66997.34;;;14.50;100.00
46614;BME280;32338;50.430;6.806;2023-07-28T04:51:59;67001.09;;;14.51;100.00
46614;BME280;32338;50.430;6.806;2023-07-28T04:54:27;67003.19;;;14.50;100.00
46614;BME280;32338;50.430;6.806;2023-07-28T04:56:54;67002.41;;;14.54;100.00
46614;BME280;32338;50.430;6.806;2023-07-28T04:59:20;67007.88;;;14.57;100.00
46614;BME280;32338;50.430;6.806;2023-07-28T05:01:47;67007.13;;;14.54;100.00
46614;BME280;32338;50.430;6.806;2023-07-28T05:04:13;67005.63;;;14.55;100.00
46614;BME280;32338;50.430;6.806;2023-07-28T05:06:40;67007.69;;;14.54;100.00
46614;BME280;32338;50.430;6.806;2023-07-28T05:09:06;67003.91;;;14.53;100.00
46614;BME280;32338;50.430;6.806;2023-07-28T05:11:35;67005.63;;;14.55;100.00
46614;BME280;32338;50.430;6.806;2023-07-28T05:14:02;67013.53;;;14.62;100.00
46614;BME280;32338;50.430;6.806;2023-07-28T05:16:31;67014.66;;;14.63;100.00
46614;BME280;32338;50.430;6.806;2023-07-28T05:18:57;67011.47;;;14.63;100.00
46614;BME280;32338;50.430;6.806;2023-07-28T05:21:24;67015.81;;;14.64;100.00
46614;BME280;32338;50.430;6.806;2023-07-28T05:23:51;67016.78;;;14.70;100.00
46614;BME280;32338;50.430;6.806;2023-07-28T05:26:17;67018.66;;;14.67;100.00
46614;BME280;32338;50.430;6.806;2023-07-28T05:28:45;67022.97;;;14.68;100.00
46614;BME280;32338;50.430;6.806;2023-07-28T05:31:12;67022.78;;;14.66;100.00
46614;BME280;32338;50.430;6.806;2023-07-28T05:33:40;67019.22;;;14.67;100.00
46614;BME280;32338;50.430;6.806;2023-07-28T05:36:07;67012.41;;;14.68;100.00
46614;BME280;32338;50.430;6.806;2023-07-28T05:38:33;67012.25;;;14.66;100.00
46614;BME280;32338;50.430;6.806;2023-07-28T05:41:01;67018.66;;;14.67;100.00
46614;BME280;32338;50.430;6.806;2023-07-28T05:43:28;67034.84;;;14.79;100.00
46614;BME280;32338;50.430;6.806;2023-07-28T05:45:57;67025.63;;;14.75;100.00
46614;BME280;32338;50.430;6.806;2023-07-28T05:48:23;67032.59;;;14.77;100.00
46614;BME280;32338;50.430;6.806;2023-07-28T05:50:50;67035.59;;;14.82;100.00
46614;BME280;32338;50.430;6.806;2023-07-28T05:53:19;67030.13;;;14.80;100.00
46614;BME280;32338;50.430;6.806;2023-07-28T05:55:46;67036.75;;;14.83;100.00
46614;BME280;32338;50.430;6.806;2023-07-28T05:58:12;67046.53;;;14.95;100.00
46614;BME280;32338;50.430;6.806;2023-07-28T06:00:39;67050.31;;;15.03;100.00
46614;BME280;32338;50.430;6.806;2023-07-28T06:03:09;67051.44;;;14.97;100.00
46614;BME280;32338;50.430;6.806;2023-07-28T06:05:38;67054.28;;;14.99;100.00
46614;BME280;32338;50.430;6.806;2023-07-28T06:08:04;67060.88;;;15.03;100.00
46614;BME280;32338;50.430;6.806;2023-07-28T06:10:31;67060.88;;;15.03;100.00
46614;BME280;32338;50.430;6.806;2023-07-28T06:12:58;67056.72;;;15.04;100.00
46614;BME280;32338;50.430;6.806;2023-07-28T06:15:24;67056.53;;;15.01;100.00
46614;BME280;32338;50.430;6.806;2023-07-28T06:17:51;67066.53;;;15.08;100.00
46614;BME280;32338;50.430;6.806;2023-07-28T06:20:19;67062.56;;;15.04;100.00
46614;BME280;32338;50.430;6.806;2023-07-28T06:22:45;67065.75;;;15.12;100.00
46614;BME280;32338;50.430;6.806;2023-07-28T06:25:12;67081.44;;;15.24;100.00
46614;BME280;32338;50.430;6.806;2023-07-28T06:27:38;67077.66;;;15.23;100.00
46614;BME280;32338;50.430;6.806;2023-07-28T06:30:06;67072.94;;;15.16;100.00
46614;BME280;32338;50.430;6.806;2023-07-28T06:32:33;67079.16;;;15.22;100.00
46614;BME280;32338;50.430;6.806;2023-07-28T06:35:00;67075.38;;;15.21;100.00
46614;BME280;32338;50.430;6.806;2023-07-28T06:37:27;67079.16;;;15.22;100.00
46614;BME280;32338;50.430;6.806;2023-07-28T06:39:54;67073.88;;;15.22;100.00
46614;BME280;32338;50.430;6.806;2023-07-28T06:42:21;67085.38;;;15.28;100.00
46614;BME280;32338;50.430;6.806;2023-07-28T06:44:49;67082.56;;;15.25;100.00
46614;BME280;32338;50.430;6.806;2023-07-28T06:47:16;67083.69;;;15.26;100.00
46614;BME280;32338;50.430;6.806;2023-07-28T06:49:43;67087.28;;;15.32;100.00
46614;BME280;32338;50.430;6.806;2023-07-28T06:52:09;67093.31;;;15.35;100.00
46614;BME280;32338;50.430;6.806;2023-07-28T06:54:37;67095.19;;;15.39;100.00
46614;BME280;32338;50.430;6.806;2023-07-28T06:57:05;67105.00;;;15.43;100.00
46614;BME280;32338;50.430;6.806;2023-07-28T06:59:31;67109.50;;;15.54;100.00
46614;BME280;32338;50.430;6.806;2023-07-28T07:01:58;67109.50;;;15.54;100.00
46614;BME280;32338;50.430;6.806;2023-07-28T07:04:24;67119.53;;;15.61;100.00
46614;BME280;32338;50.430;6.806;2023-07-28T07:06:51;67117.25;;;15.59;100.00
46614;BME280;32338;50.430;6.806;2023-07-28T07:09:18;67121.03;;;15.60;100.00
46614;BME280;32338;50.430;6.806;2023-07-28T07:11:46;67123.28;;;15.62;100.00
46614;BME280;32338;50.430;6.806;2023-07-28T07:14:13;67129.69;;;15.70;100.00
46614;BME280;32338;50.430;6.806;2023-07-28T07:16:40;67146.31;;;15.81;100.00
46614;BME280;32338;50.430;6.806;2023-07-28T07:19:07;67149.34;;;15.86;100.00
46614;BME280;32338;50.430;6.806;2023-07-28T07:21:34;67154.06;;;15.93;100.00
46614;BME280;32338;50.430;6.806;2023-07-28T07:24:02;67157.44;;;15.96;100.00
46614;BME280;32338;50.430;6.806;2023-07-28T07:26:29;67163.28;;;16.03;100.00
46614;BME280;32338;50.430;6.806;2023-07-28T07:28:57;67171.41;;;16.06;100.00
46614;BME280;32338;50.430;6.806;2023-07-28T07:31:24;67178.19;;;16.12;100.00
46614;BME280;32338;50.430;6.806;2023-07-28T07:33:51;67183.66;;;16.22;100.00
46614;BME280;32338;50.430;6.806;2023-07-28T07:36:19;67184.63;;;16.20;100.00
46614;BME280;32338;50.430;6.806;2023-07-28T07:38:46;67191.41;;;16.27;100.00
46614;BME280;32338;50.430;6.806;2023-07-28T07:41:13;67197.06;;;16.32;100.00
46614;BME280;32338;50.430;6.806;2023-07-28T07:43:41;67204.59;;;16.41;100.00
46614;BME280;32338;50.430;6.806;2023-07-28T07:46:09;67204.81;;;16.36;100.00
46614;BME280;32338;50.430;6.806;2023-07-28T07:48:35;67211.81;;;16.45;100.00
46614;BME280;32338;50.430;6.806;2023-07-28T07:51:02;67209.53;;;16.43;100.00
46614;BME280;32338;50.430;6.806;2023-07-28T07:53:29;67222.34;;;16.52;100.00
46614;BME280;32338;50.430;6.806;2023-07-28T07:55:55;67215.00;;;16.46;100.00
46614;BME280;32338;50.430;6.806;2023-07-28T07:58:22;67216.31;;;16.49;100.00
46614;BME280;32338;50.430;6.806;2023-07-28T08:00:48;67225.94;;;16.58;100.00
46614;BME280;32338;50.430;6.806;2023-07-28T08:03:16;67229.16;;;16.59;100.00
46614;BME280;32338;50.430;6.806;2023-07-28T08:05:43;67235.75;;;16.69;100.00
46614;BME280;32338;50.430;6.806;2023-07-28T08:08:10;67253.13;;;16.83;100.00
46614;BME280;32338;50.430;6.806;2023-07-28T08:10:38;67253.34;;;16.78;100.00
46614;BME280;32338;50.430;6.806;2023-07-28T08:13:05;67247.28;;;16.75;100.00
46614;BME280;32338;50.430;6.806;2023-07-28T08:15:31;67245.97;;;16.72;100.00
46614;BME280;32338;50.430;6.806;2023-07-28T08:17:58;67244.06;;;16.75;100.00
46614;BME280;32338;50.430;6.806;2023-07-28T08:20:26;67251.03;;;16.83;100.00
46614;BME280;32338;50.430;6.806;2023-07-28T08:22:53;67270.16;;;16.98;100.00
46614;BME280;32338;50.430;6.806;2023-07-28T08:25:20;67267.88;;;16.96;100.00
46614;BME280;32338;50.430;6.806;2023-07-28T08:27:48;67271.09;;;16.97;100.00
46614;BME280;32338;50.430;6.806;2023-07-28T08:30:14;67263.94;;;16.93;100.00
46614;BME280;32338;50.430;6.806;2023-07-28T08:32:41;67266.19;;;16.95;100.00
46614;BME280;32338;50.430;6.806;2023-07-28T08:35:08;67278.06;;;17.06;100.00
46614;BME280;32338;50.430;6.806;2023-07-28T08:37:36;67274.88;;;17.05;100.00
46614;BME280;32338;50.430;6.806;2023-07-28T08:40:03;67278.63;;;17.06;100.00
46614;BME280;32338;50.430;6.806;2023-07-28T08:42:35;67278.06;;;17.06;100.00
46614;BME280;32338;50.430;6.806;2023-07-28T08:45:02;67274.09;;;17.02;100.00
46614;BME280;32338;50.430;6.806;2023-07-28T08:47:30;67274.47;;;17.07;100.00
46614;BME280;32338;50.430;6.806;2023-07-28T08:49:57;67274.66;;;17.02;100.00
46614;BME280;32338;50.430;6.806;2023-07-28T08:52:23;67264.84;;;16.98;100.00
46614;BME280;32338;50.430;6.806;2023-07-28T08:54:51;67277.13;;;17.00;100.00
46614;BME280;32338;50.430;6.806;2023-07-28T08:57:18;67272.41;;;17.00;100.00
46614;BME280;32338;50.430;6.806;2023-07-28T08:59:45;67282.41;;;17.14;100.00
46614;BME280;32338;50.430;6.806;2023-07-28T09:02:14;67293.19;;;17.17;100.00
46614;BME280;32338;50.430;6.806;2023-07-28T09:04:41;67308.66;;;17.33;100.00
46614;BME280;32338;50.430;6.806;2023-07-28T09:07:08;67325.88;;;17.44;100.00
46614;BME280;32338;50.430;6.806;2023-07-28T09:09:37;67335.50;;;17.60;100.00
46614;BME280;32338;50.430;6.806;2023-07-28T09:12:06;67342.84;;;17.67;100.00
46614;BME280;32338;50.430;6.806;2023-07-28T09:14:35;67333.78;;;17.59;100.00
46614;BME280;32338;50.430;6.806;2023-07-28T09:17:06;67350.81;;;17.67;100.00
46614;BME280;32338;50.430;6.806;2023-07-28T09:19:33;67344.75;;;17.64;100.00
46614;BME280;32338;50.430;6.806;2023-07-28T09:22:01;67334.56;;;17.55;100.00
46614;BME280;32338;50.430;6.806;2023-07-28T09:24:31;67320.00;;;17.44;100.00
46614;BME280;32338;50.430;6.806;2023-07-28T09:26:58;67316.78;;;17.43;100.00
46614;BME280;32338;50.430;6.806;2023-07-28T09:29:27;67318.47;;;17.45;100.00
46614;BME280;32338;50.430;6.806;2023-07-28T09:32:03;67323.03;;;17.49;100.00
46614;BME280;32338;50.430;6.806;2023-07-28T09:34:30;67326.22;;;17.49;100.00
46614;BME280;32338;50.430;6.806;2023-07-28T09:36:59;67340.97;;;17.63;100.00
46614;BME280;32338;50.430;6.806;2023-07-28T09:39:26;67368.16;;;17.88;100.00
46614;BME280;32338;50.430;6.806;2023-07-28T09:41:53;67373.66;;;17.90;100.00
46614;BME280;32338;50.430;6.806;2023-07-28T09:44:23;67372.34;;;17.94;100.00
46614;BME280;32338;50.430;6.806;2023-07-28T09:46:53;67355.88;;;17.79;100.00
46614;BME280;32338;50.430;6.806;2023-07-28T09:49:24;67383.34;;;17.99;100.00
46614;BME280;32338;50.430;6.806;2023-07-28T09:51:54;67396.34;;;18.11;100.00
46614;BME280;32338;50.430;6.806;2023-07-28T09:54:24;67399.38;;;18.16;100.00
46614;BME280;32338;50.430;6.806;2023-07-28T09:56:54;67389.00;;;18.04;100.00
46614;BME280;32338;50.430;6.806;2023-07-28T09:59:24;67388.06;;;17.98;100.00
46614;BME280;32338;50.430;6.806;2023-07-28T10:01:56;67392.38;;;18.07;100.00
46614;BME280;32338;50.430;6.806;2023-07-28T10:04:24;67411.84;;;18.27;100.00
46614;BME280;32338;50.430;6.806;2023-07-28T10:06:51;67424.31;;;18.39;100.00
46614;BME280;32338;50.430;6.806;2023-07-28T10:09:22;67443.78;;;18.59;100.00
46614;BME280;32338;50.430;6.806;2023-07-28T10:11:49;67442.47;;;18.55;100.00
46614;BME280;32338;50.430;6.806;2023-07-28T10:14:25;67449.09;;;18.59;100.00
46614;BME280;32338;50.430;6.806;2023-07-28T10:16:52;67438.13;;;18.46;100.00
46614;BME280;32338;50.430;6.806;2023-07-28T10:19:20;67426.00;;;18.40;100.00
46614;BME280;32338;50.430;6.806;2023-07-28T10:21:47;67408.44;;;18.24;100.00
46614;BME280;32338;50.430;6.806;2023-07-28T10:24:14;67403.53;;;18.22;100.00
46614;BME280;32338;50.430;6.806;2023-07-28T10:26:41;67399.00;;;18.18;100.00
46614;BME280;32338;50.430;6.806;2023-07-28T10:29:13;67412.25;;;18.25;100.00
46614;BME280;32338;50.430;6.806;2023-07-28T10:31:50;67418.66;;;18.34;100.00
46614;BME280;32338;50.430;6.806;2023-07-28T10:34:17;67432.09;;;18.43;100.00
46614;BME280;32338;50.430;6.806;2023-07-28T10:36:46;67440.59;;;18.51;100.00
46614;BME280;32338;50.430;6.806;2023-07-28T10:39:14;67435.28;;;18.51;100.00
46614;BME280;32338;50.430;6.806;2023-07-28T10:42:00;67430.16;;;18.46;100.00
46614;BME280;32338;50.430;6.806;2023-07-28T10:44:27;67409.78;;;18.28;100.00
46614;BME280;32338;50.430;6.806;2023-07-28T10:46:54;67413.53;;;18.29;100.00
46614;BME280;32338;50.430;6.806;2023-07-28T10:49:21;67419.41;;;18.37;100.00
46614;BME280;32338;50.430;6.806;2023-07-28T10:51:49;67431.13;;;18.45;100.00
46614;BME280;32338;50.430;6.806;2023-07-28T10:54:15;67431.47;;;18.50;100.00
46614;BME280;32338;50.430;6.806;2023-07-28T10:56:45;67420.16;;;18.33;100.00
46614;BME280;32338;50.430;6.806;2023-07-28T10:59:12;67411.84;;;18.27;100.00
46614;BME280;32338;50.430;6.806;2023-07-28T11:01:39;67417.34;;;18.30;100.00
46614;BME280;32338;50.430;6.806;2023-07-28T11:04:08;67421.09;;;18.38;100.00
46614;BME280;32338;50.430;6.806;2023-07-28T11:06:35;67433.41;;;18.47;100.00
46614;BME280;32338;50.430;6.806;2023-07-28T11:09:05;67444.56;;;18.55;100.00
46614;BME280;32338;50.430;6.806;2023-07-28T11:11:33;67445.88;;;18.58;100.00
46614;BME280;32338;50.430;6.806;2023-07-28T11:14:01;67440.59;;;18.51;100.00
46614;BME280;32338;50.430;6.806;2023-07-28T11:16:28;67436.22;;;18.50;100.00
46614;BME280;32338;50.430;6.806;2023-07-28T11:18:55;67443.41;;;18.54;100.00
46614;BME280;32338;50.430;6.806;2023-07-28T11:21:23;67457.22;;;18.69;100.00
46614;BME280;32338;50.430;6.806;2023-07-28T11:23:49;67462.31;;;18.73;100.00
46614;BME280;32338;50.430;6.806;2023-07-28T11:26:17;67452.50;;;18.62;100.00
46614;BME280;32338;50.430;6.806;2023-07-28T11:28:44;67452.69;;;18.64;100.00
46614;BME280;32338;50.430;6.806;2023-07-28T11:31:11;67454.38;;;18.66;100.00
46614;BME280;32338;50.430;6.806;2023-07-28T11:33:39;67449.09;;;18.59;100.00
46614;BME280;32338;50.430;6.806;2023-07-28T11:36:05;67437.72;;;18.56;100.00
46614;BME280;32338;50.430;6.806;2023-07-28T11:38:33;67445.13;;;18.55;100.00
46614;BME280;32338;50.430;6.806;2023-07-28T11:41:00;67458.72;;;18.68;100.00
46614;BME280;32338;50.430;6.806;2023-07-28T11:43:29;67458.56;;;18.65;100.00
46614;BME280;32338;50.430;6.806;2023-07-28T11:45:56;67466.50;;;18.72;100.00
46614;BME280;32338;50.430;6.806;2023-07-28T11:48:22;67458.19;;;18.67;100.00
46614;BME280;32338;50.430;6.806;2023-07-28T11:50:49;67460.63;;;18.72;100.00
46614;BME280;32338;50.430;6.806;2023-07-28T11:53:19;67478.78;;;18.88;100.00
46614;BME280;32338;50.430;6.806;2023-07-28T11:55:46;67499.06;;;19.04;100.00
46614;BME280;32338;50.430;6.806;2023-07-28T11:58:12;67507.16;;;19.14;100.00
46614;BME280;32338;50.430;6.806;2023-07-28T12:00:40;67524.19;;;19.30;100.00
46614;BME280;32338;50.430;6.806;2023-07-28T12:03:10;67534.97;;;19.39;100.00
46614;BME280;32338;50.430;6.806;2023-07-28T12:05:38;67525.16;;;19.28;100.00
46614;BME280;32338;50.430;6.806;2023-07-28T12:08:05;67517.75;;;19.21;100.00
46614;BME280;32338;50.430;6.806;2023-07-28T12:10:33;67493.94;;;19.00;100.00
46614;BME280;32338;50.430;6.806;2023-07-28T12:13:04;67475.94;;;18.86;100.00
46614;BME280;32338;50.430;6.806;2023-07-28T12:15:32;67461.56;;;18.70;100.00
46614;BME280;32338;50.430;6.806;2023-07-28T12:18:04;67460.44;;;18.69;100.00
46614;BME280;32338;50.430;6.806;2023-07-28T12:20:36;67469.31;;;18.82;100.00
46614;BME280;32338;50.430;6.806;2023-07-28T12:23:03;67476.91;;;18.84;100.00
46614;BME280;32338;50.430;6.806;2023-07-28T12:25:30;67481.06;;;18.90;100.00
46614;BME280;32338;50.430;6.806;2023-07-28T12:27:57;67489.75;;;19.01;100.00
46614;BME280;32338;50.430;6.806;2023-07-28T12:30:24;67497.50;;;19.05;100.00
46614;BME280;32338;50.430;6.806;2023-07-28T12:32:51;67499.22;;;19.07;100.00
46614;BME280;32338;50.430;6.806;2023-07-28T12:35:19;67499.06;;;19.04;100.00
46614;BME280;32338;50.430;6.806;2023-07-28T12:37:46;67487.69;;;18.94;100.00
46614;BME280;32338;50.430;6.806;2023-07-28T12:40:12;67469.13;;;18.79;100.00
46614;BME280;32338;50.430;6.806;2023-07-28T12:42:39;67468.38;;;18.76;100.00
46614;BME280;32338;50.430;6.806;2023-07-28T12:45:06;67479.34;;;18.89;100.00
46614;BME280;32338;50.430;6.806;2023-07-28T12:47:33;67487.13;;;18.93;100.00
46614;BME280;32338;50.430;6.806;2023-07-28T12:50:00;67493.16;;;19.04;100.00
46614;BME280;32338;50.430;6.806;2023-07-28T12:52:29;67491.28;;;19.00;100.00